地図

経路データ

SID SEASON NUMBER BASIN SUBBASIN NAME ISO_TIME NATURE LAT LON WMO_WIND WMO_PRES WMO_AGENCY TRACK_TYPE DIST2LAND LANDFALL IFLAG USA_AGENCY USA_ATCF_ID USA_LAT USA_LON USA_RECORD USA_STATUS USA_WIND USA_PRES USA_SSHS USA_R34_NE USA_R34_SE USA_R34_SW USA_R34_NW USA_R50_NE USA_R50_SE USA_R50_SW USA_R50_NW USA_R64_NE USA_R64_SE USA_R64_SW USA_R64_NW USA_POCI USA_ROCI USA_RMW USA_EYE TOKYO_LAT TOKYO_LON TOKYO_GRADE TOKYO_WIND TOKYO_PRES TOKYO_R50_DIR TOKYO_R50_LONG TOKYO_R50_SHORT TOKYO_R30_DIR TOKYO_R30_LONG TOKYO_R30_SHORT TOKYO_LAND CMA_LAT CMA_LON CMA_CAT CMA_WIND CMA_PRES HKO_LAT HKO_LON HKO_CAT HKO_WIND HKO_PRES NEWDELHI_LAT NEWDELHI_LON NEWDELHI_GRADE NEWDELHI_WIND NEWDELHI_PRES NEWDELHI_CI NEWDELHI_DP NEWDELHI_POCI REUNION_LAT REUNION_LON REUNION_TYPE REUNION_WIND REUNION_PRES REUNION_TNUM REUNION_CI REUNION_RMW REUNION_R34_NE REUNION_R34_SE REUNION_R34_SW REUNION_R34_NW REUNION_R50_NE REUNION_R50_SE REUNION_R50_SW REUNION_R50_NW REUNION_R64_NE REUNION_R64_SE REUNION_R64_SW REUNION_R64_NW BOM_LAT BOM_LON BOM_TYPE BOM_WIND BOM_PRES BOM_TNUM BOM_CI BOM_RMW BOM_R34_NE BOM_R34_SE BOM_R34_SW BOM_R34_NW BOM_R50_NE BOM_R50_SE BOM_R50_SW BOM_R50_NW BOM_R64_NE BOM_R64_SE BOM_R64_SW BOM_R64_NW BOM_ROCI BOM_POCI BOM_EYE BOM_POS_METHOD BOM_PRES_METHOD NADI_LAT NADI_LON NADI_CAT NADI_WIND NADI_PRES WELLINGTON_LAT WELLINGTON_LON WELLINGTON_WIND WELLINGTON_PRES DS824_LAT DS824_LON DS824_STAGE DS824_WIND DS824_PRES TD9636_LAT TD9636_LON TD9636_STAGE TD9636_WIND TD9636_PRES TD9635_LAT TD9635_LON TD9635_WIND TD9635_PRES TD9635_ROCI NEUMANN_LAT NEUMANN_LON NEUMANN_CLASS NEUMANN_WIND NEUMANN_PRES MLC_LAT MLC_LON MLC_CLASS MLC_WIND MLC_PRES USA_GUST BOM_GUST BOM_GUST_PER REUNION_GUST REUNION_GUST_PER USA_SEAHGT USA_SEARAD_NE USA_SEARAD_SE USA_SEARAD_SW USA_SEARAD_NW STORM_SPEED STORM_DIR
1875246N12333 1875 10 NA NA NOT_NAMED 1875-09-02 12:00:00 TS 11.5000 -27.3000 main 1120 1120 _____________O -1 11.5000 -27.3000 TS 35 12 275
1875246N12333 1875 10 NA NA NOT_NAMED 1875-09-02 15:00:00 TS 11.5503 -27.9025 main 1178 1178 _____________P -1 11.5503 -27.9025 TS 35 12 275
1875246N12333 1875 10 NA NA NOT_NAMED 1875-09-02 18:00:00 TS 11.6000 -28.5000 main 1241 1241 _____________O -1 11.6000 -28.5000 TS 35 12 275
1875246N12333 1875 10 NA NA NOT_NAMED 1875-09-02 21:00:00 TS 11.6498 -29.0925 main 1303 1300 _____________P -1 11.6498 -29.0925 TS 35 12 275
1875246N12333 1875 10 NA NA NOT_NAMED 1875-09-03 00:00:00 TS 11.7000 -29.7000 main 1363 1363 _____________O -1 11.7000 -29.7000 TS 35 12 275
1875246N12333 1875 10 NA NA NOT_NAMED 1875-09-03 03:00:00 TS 11.7575 -30.3500 main 1423 1423 _____________P -1 11.7575 -30.3500 TS 35 13 274
1875246N12333 1875 10 NA NA NOT_NAMED 1875-09-03 06:00:00 TS 11.8000 -31.0000 main 1497 1497 _____________O -1 11.8000 -31.0000 TS 35 12 272
1875246N12333 1875 10 NA NA NOT_NAMED 1875-09-03 09:00:00 TS 11.7998 -31.6076 main 1560 1560 _____________P -1 11.7998 -31.6076 TS 37 12 270
1875246N12333 1875 10 NA NA NOT_NAMED 1875-09-03 12:00:00 TS 11.8000 -32.2000 main 1624 1624 _____________O -1 11.8000 -32.2000 TS 40 12 272
1875246N12333 1875 10 NA NA NOT_NAMED 1875-09-03 15:00:00 TS 11.8423 -32.7925 main 1688 1688 _____________P -1 11.8423 -32.7925 TS 40 12 275
1875246N12333 1875 10 NA NA NOT_NAMED 1875-09-03 18:00:00 TS 11.9000 -33.4000 main 1749 1749 _____________O -1 11.9000 -33.4000 TS 40 12 275
1875246N12333 1875 10 NA NA NOT_NAMED 1875-09-03 21:00:00 TS 11.9424 -34.0426 main 1778 1762 _____________P -1 11.9424 -34.0426 TS 40 13 274
1875246N12333 1875 10 NA NA NOT_NAMED 1875-09-04 00:00:00 TS 12.0000 -34.7000 main 1762 1751 _____________O -1 12.0000 -34.7000 TS 40 13 277
1875246N12333 1875 10 NA NA NOT_NAMED 1875-09-04 03:00:00 TS 12.0999 -35.3574 main 1749 1743 _____________P -1 12.0999 -35.3574 TS 40 13 279
1875246N12333 1875 10 NA NA NOT_NAMED 1875-09-04 06:00:00 TS 12.2000 -36.0000 main 1743 1730 _____________O -1 12.2000 -36.0000 TS 40 12 277
1875246N12333 1875 10 NA NA NOT_NAMED 1875-09-04 09:00:00 TS 12.2574 -36.6151 main 1739 1727 _____________P -1 12.2574 -36.6151 TS 42 12 275
1875246N12333 1875 10 NA NA NOT_NAMED 1875-09-04 12:00:00 TS 12.3000 -37.2000 main 1727 1718 _____________O -1 12.3000 -37.2000 TS 45 11 275
1875246N12333 1875 10 NA NA NOT_NAMED 1875-09-04 15:00:00 TS 12.3498 -37.7500 main 1717 1693 _____________P -1 12.3498 -37.7500 TS 45 11 275
1875246N12333 1875 10 NA NA NOT_NAMED 1875-09-04 18:00:00 TS 12.4000 -38.3000 main 1693 1638 _____________O -1 12.4000 -38.3000 TS 45 11 275
1875246N12333 1875 10 NA NA NOT_NAMED 1875-09-04 21:00:00 TS 12.4499 -38.8925 main 1638 1590 _____________P -1 12.4499 -38.8925 TS 45 12 275
1875246N12333 1875 10 NA NA NOT_NAMED 1875-09-05 00:00:00 TS 12.5000 -39.5000 main 1590 1536 _____________O -1 12.5000 -39.5000 TS 45 12 275
1875246N12333 1875 10 NA NA NOT_NAMED 1875-09-05 03:00:00 TS 12.5498 -40.0925 main 1536 1491 _____________P -1 12.5498 -40.0925 TS 45 12 275
1875246N12333 1875 10 NA NA NOT_NAMED 1875-09-05 06:00:00 TS 12.6000 -40.7000 main 1491 1440 _____________O -1 12.6000 -40.7000 TS 45 12 275
1875246N12333 1875 10 NA NA NOT_NAMED 1875-09-05 09:00:00 TS 12.6499 -41.3500 main 1431 1389 _____________P -1 12.6499 -41.3500 TS 47 13 275
1875246N12333 1875 10 NA NA NOT_NAMED 1875-09-05 12:00:00 TS 12.7000 -42.0000 main 1389 1341 _____________O -1 12.7000 -42.0000 TS 50 12 275
1875246N12333 1875 10 NA NA NOT_NAMED 1875-09-05 15:00:00 TS 12.7498 -42.6075 main 1341 1303 _____________P -1 12.7498 -42.6075 TS 50 12 275
1875246N12333 1875 10 NA NA NOT_NAMED 1875-09-05 18:00:00 TS 12.8000 -43.2000 main 1303 1259 _____________O -1 12.8000 -43.2000 TS 50 12 275
1875246N12333 1875 10 NA NA NOT_NAMED 1875-09-05 21:00:00 TS 12.8499 -43.8000 main 1259 1226 _____________P -1 12.8499 -43.8000 TS 50 12 275
1875246N12333 1875 10 NA NA NOT_NAMED 1875-09-06 00:00:00 TS 12.9000 -44.4000 main 1226 1186 _____________O -1 12.9000 -44.4000 TS 50 12 275
1875246N12333 1875 10 NA NA NOT_NAMED 1875-09-06 03:00:00 TS 12.9499 -45.0000 main 1186 1158 _____________P -1 12.9499 -45.0000 TS 50 12 275
1875246N12333 1875 10 NA NA NOT_NAMED 1875-09-06 06:00:00 TS 13.0000 -45.6000 main 1158 1121 _____________O -1 13.0000 -45.6000 TS 50 12 275
1875246N12333 1875 10 NA NA NOT_NAMED 1875-09-06 09:00:00 TS 13.0499 -46.2000 main 1121 1090 _____________P -1 13.0499 -46.2000 TS 52 12 275
1875246N12333 1875 10 NA NA NOT_NAMED 1875-09-06 12:00:00 TS 13.1000 -46.8000 main 1090 1053 _____________O -1 13.1000 -46.8000 TS 55 12 275
1875246N12333 1875 10 NA NA NOT_NAMED 1875-09-06 15:00:00 TS 13.1499 -47.4000 main 1053 1028 _____________P -1 13.1499 -47.4000 TS 57 12 275
1875246N12333 1875 10 NA NA NOT_NAMED 1875-09-06 18:00:00 TS 13.2000 -48.0000 main 1028 997 _____________O -1 13.2000 -48.0000 TS 60 12 275
1875246N12333 1875 10 NA NA NOT_NAMED 1875-09-06 21:00:00 TS 13.2498 -48.5925 main 997 979 _____________P -1 13.2498 -48.5925 TS 60 12 275
1875246N12333 1875 10 NA NA NOT_NAMED 1875-09-07 00:00:00 TS 13.3000 -49.2000 main 979 954 _____________O -1 13.3000 -49.2000 TS 60 12 275
1875246N12333 1875 10 NA NA NOT_NAMED 1875-09-07 03:00:00 TS 13.3499 -49.8500 main 950 932 _____________P -1 13.3499 -49.8500 TS 62 13 275
1875246N12333 1875 10 NA NA NOT_NAMED 1875-09-07 06:00:00 TS 13.4000 -50.5000 main 932 906 _____________O -1 13.4000 -50.5000 HU 65 12 275
1875246N12333 1875 10 NA NA NOT_NAMED 1875-09-07 09:00:00 TS 13.4498 -51.1075 main 906 894 _____________P -1 13.4498 -51.1075 HU 67 12 275
1875246N12333 1875 10 NA NA NOT_NAMED 1875-09-07 12:00:00 TS 13.5000 -51.7000 main 894 876 _____________O -1 13.5000 -51.7000 HU 70 12 275
1875246N12333 1875 10 NA NA NOT_NAMED 1875-09-07 15:00:00 TS 13.5499 -52.3000 main 876 874 _____________P -1 13.5499 -52.3000 HU 70 12 275
1875246N12333 1875 10 NA NA NOT_NAMED 1875-09-07 18:00:00 TS 13.6000 -52.9000 main 874 865 _____________O -1 13.6000 -52.9000 HU 70 12 275
1875246N12333 1875 10 NA NA NOT_NAMED 1875-09-07 21:00:00 TS 13.6499 -53.5000 main 865 797 _____________P -1 13.6499 -53.5000 HU 72 16 276
1875246N12333 1875 10 NA NA NOT_NAMED 1875-09-08 00:00:00 TS 13.7667 -54.5000 70 hurdat_atl main 787 719 O____________O hurdat_atl AL031875 13.9000 -55.3000 HU 70 1 13.7000 -54.1000 HU 75 17 276
1875246N12333 1875 10 NA NA NOT_NAMED 1875-09-08 03:00:00 TS 13.8188 -55.2763 main 710 660 P____________P AL031875 13.8878 -55.8526 HU 70 1 13.7499 -54.7000 HU 75 14 274
1875246N12333 1875 10 NA NA NOT_NAMED 1875-09-08 06:00:00 TS 13.8600 -55.9600 70 hurdat_atl main 650 597 O____________O hurdat_atl AL031875 13.9000 -56.4000 HU 70 1 13.8000 -55.3000 HU 75 13 274
1875246N12333 1875 10 NA NA NOT_NAMED 1875-09-08 09:00:00 TS 13.9165 -56.5950 main 597 562 P____________P AL031875 13.9498 -56.9424 HU 70 1 13.8499 -55.9000 HU 77 12 275
1875246N12333 1875 10 NA NA NOT_NAMED 1875-09-08 12:00:00 TS 13.9667 -57.1667 70 hurdat_atl main 554 514 O____________O hurdat_atl AL031875 14.0000 -57.5000 HU 70 1 13.9000 -56.5000 HU 80 11 273
1875246N12333 1875 10 NA NA NOT_NAMED 1875-09-08 15:00:00 TS 13.9808 -57.7743 main 507 471 P____________P AL031875 14.0000 -58.1076 HU 70 1 13.9424 -57.1076 HU 82 12 272
1875246N12333 1875 10 NA NA NOT_NAMED 1875-09-08 18:00:00 TS 14.0000 -58.3667 70 hurdat_atl main 465 440 O____________O hurdat_atl AL031875 14.0000 -58.7000 HU 70 1 14.0000 -57.7000 HU 85 11 274
1875246N12333 1875 10 NA NA NOT_NAMED 1875-09-08 21:00:00 TS 14.0589 -58.8833 main 443 418 P____________P AL031875 14.0423 -59.2150 HU 75 1 14.0920 -58.2201 HU 87 10 278
1875246N12333 1875 10 NA NA NOT_NAMED 1875-09-09 00:00:00 TS 14.1333 -59.4000 80 hurdat_atl main 418 409 O____________O hurdat_atl AL031875 14.1000 -59.7000 HU 80 1 14.2000 -58.8000 HU 90 11 278
1875246N12333 1875 10 NA CS NOT_NAMED 1875-09-09 03:00:00 TS 14.1999 -59.9825 main 406 397 P____________P AL031875 14.1498 -60.1925 HU 80 1 14.3001 -59.5625 HU 92 12 277
1875246N12333 1875 10 NA CS NOT_NAMED 1875-09-09 06:00:00 TS 14.2667 -60.6000 80 hurdat_atl main 405 403 O____________O hurdat_atl AL031875 14.2000 -60.7000 HU 80 1 14.4000 -60.4000 HU 95 12 276
1875246N12333 1875 10 NA CS NOT_NAMED 1875-09-09 09:00:00 TS 14.3334 -61.2508 main 403 403 P____________P AL031875 14.2500 -61.2575 HU 80 1 14.5001 -61.2375 HU 95 12 276
1875246N12333 1875 10 NA CS NOT_NAMED 1875-09-09 12:00:00 TS 14.4000 -61.8667 80 hurdat_atl main 414 414 O____________O hurdat_atl AL031875 14.3000 -61.8000 HU 80 1 14.6000 -62.0000 HU 95 11 277
1875246N12333 1875 10 NA CS NOT_NAMED 1875-09-09 15:00:00 TS 14.4664 -62.3775 main 425 425 P____________P AL031875 14.3499 -62.2725 HU 80 1 14.6996 -62.5876 HU 95 9 278
1875246N12333 1875 10 NA CS NOT_NAMED 1875-09-09 18:00:00 TS 14.5333 -62.8333 80 hurdat_atl main 425 425 O____________O hurdat_atl AL031875 14.4000 -62.7000 HU 80 1 14.8000 -63.1000 HU 95 9 279
1875246N12333 1875 10 NA CS NOT_NAMED 1875-09-09 21:00:00 TS 14.5999 -63.2884 main 437 432 P____________P AL031875 14.4499 -63.1075 HU 80 1 14.8999 -63.6500 HU 95 9 279
1875246N12333 1875 10 NA CS NOT_NAMED 1875-09-10 00:00:00 TS 14.6667 -63.7333 80 hurdat_atl main 432 406 O____________O hurdat_atl AL031875 14.5000 -63.5000 HU 80 1 15.0000 -64.2000 HU 95 9 278
1875246N12333 1875 10 NA CS NOT_NAMED 1875-09-10 03:00:00 TS 14.7257 -64.1834 main 406 380 P____________P AL031875 14.5424 -63.9001 HU 80 1 15.0924 -64.7501 HU 95 9 279
1875246N12333 1875 10 NA CS NOT_NAMED 1875-09-10 06:00:00 TS 14.8000 -64.6333 80 hurdat_atl main 380 357 O____________O hurdat_atl AL031875 14.6000 -64.3000 HU 80 1 15.2000 -65.3000 HU 95 9 282
1875246N12333 1875 10 NA CS NOT_NAMED 1875-09-10 09:00:00 TS 14.9040 -65.0634 main 354 333 P____________P AL031875 14.6848 -64.6701 HU 80 1 15.3424 -65.8500 HU 95 9 285
1875246N12333 1875 10 NA CS NOT_NAMED 1875-09-10 12:00:00 TS 15.0333 -65.5333 80 hurdat_atl main 333 302 O____________O hurdat_atl AL031875 14.8000 -65.1000 HU 80 1 15.5000 -66.4000 HU 95 10 285
1875246N12333 1875 10 NA CS NOT_NAMED 1875-09-10 15:00:00 TS 15.1734 -66.1042 main 302 291 P____________P AL031875 14.9351 -65.6775 HU 80 1 15.6499 -66.9576 HU 95 12 285
1875246N12333 1875 10 NA CS NOT_NAMED 1875-09-10 18:00:00 TS 15.3333 -66.7000 80 hurdat_atl main 291 268 O____________O hurdat_atl AL031875 15.1000 -66.3000 HU 80 1 15.8000 -67.5000 HU 95 12 287
1875246N12333 1875 10 NA CS NOT_NAMED 1875-09-10 21:00:00 TS 15.5165 -67.2434 main 268 249 P____________P AL031875 15.2999 -66.8650 HU 85 2 15.9498 -68.0001 HU 95 11 290
1875246N12333 1875 10 NA CS NOT_NAMED 1875-09-11 00:00:00 TS 15.7000 -67.7667 90 hurdat_atl main 254 246 O____________O hurdat_atl AL031875 15.5000 -67.4000 HU 90 2 16.1000 -68.5000 HU 95 11 289
1875246N12333 1875 10 NA CS NOT_NAMED 1875-09-11 03:00:00 TS 15.8549 -68.2909 main 252 246 P____________P AL031875 15.6574 -67.9151 HU 90 2 16.2499 -69.0426 HU 95 10 287
1875246N12333 1875 10 NA CS NOT_NAMED 1875-09-11 06:00:00 TS 16.0000 -68.8000 90 hurdat_atl main 246 235 O____________O hurdat_atl AL031875 15.8000 -68.4000 HU 90 2 16.4000 -69.6000 HU 95 10 287
1875246N12333 1875 10 NA CS NOT_NAMED 1875-09-11 09:00:00 TS 16.1499 -69.2934 main 240 219 P____________P AL031875 15.9499 -68.8651 HU 90 2 16.5499 -70.1501 HU 95 10 288
1875246N12333 1875 10 NA CS NOT_NAMED 1875-09-11 12:00:00 TS 16.3000 -69.7667 90 hurdat_atl main 216 185 O____________O hurdat_atl AL031875 16.1000 -69.3000 HU 90 2 16.7000 -70.7000 HU 95 9 289
1875246N12333 1875 10 NA CS NOT_NAMED 1875-09-11 15:00:00 TS 16.4473 -70.2093 main 185 140 P____________P AL031875 16.2497 -69.6777 HU 90 2 16.8425 -71.2726 HU 95 9 289
1875246N12333 1875 10 NA CS NOT_NAMED 1875-09-11 18:00:00 TS 16.6000 -70.6667 90 hurdat_atl main 134 92 O____________O hurdat_atl AL031875 16.4000 -70.1000 HU 90 2 17.0000 -71.8000 HU 95 10 288
1875246N12333 1875 10 NA CS NOT_NAMED 1875-09-11 21:00:00 TS 16.7618 -71.2050 main 92 79 P____________P AL031875 16.5428 -70.7000 HU 90 2 17.1997 -72.2151 HU 95 11 288
1875246N12333 1875 10 NA CS NOT_NAMED 1875-09-12 00:00:00 TS 16.9333 -71.7333 90 hurdat_atl main 84 79 O____________O hurdat_atl AL031875 16.7000 -71.3000 HU 90 2 17.4000 -72.6000 HU 95 10 291
1875246N12333 1875 10 NA CS NOT_NAMED 1875-09-12 03:00:00 TS 17.1114 -72.1651 main 100 94 P____________P AL031875 16.8922 -71.7226 HU 90 2 17.5500 -73.0501 HU 95 9 295
1875246N12333 1875 10 NA CS NOT_NAMED 1875-09-12 06:00:00 TS 17.3000 -72.5667 90 hurdat_atl main 91 67 O____________O hurdat_atl AL031875 17.1000 -72.1000 HU 90 2 17.7000 -73.5000 HU 95 9 296
1875246N12333 1875 10 NA CS NOT_NAMED 1875-09-12 09:00:00 TS 17.4822 -72.9654 main 70 54 P____________P AL031875 17.2771 -72.4980 HU 90 2 17.8923 -73.9001 HU 95 9 296
1875246N12333 1875 10 NA CS NOT_NAMED 1875-09-12 12:00:00 TS 17.7000 -73.4333 90 hurdat_atl main 54 11 O____________O hurdat_atl AL031875 17.5000 -73.0000 HU 90 2 18.1000 -74.3000 HU 95 11 294
1875246N12333 1875 10 NA CS NOT_NAMED 1875-09-12 15:00:00 TS 17.9526 -74.0561 main 15 15 P____________P AL031875 17.7902 -73.7054 HU 90 2 18.2775 -74.7577 HU 95 14 296
1875246N12333 1875 10 NA CS NOT_NAMED 1875-09-12 18:00:00 TS 18.3000 -74.7333 90 hurdat_atl main 23 23 O____________O hurdat_atl AL031875 18.2000 -74.5000 HU 90 2 18.5000 -75.2000 HU 95 15 305
1875246N12333 1875 10 NA CS NOT_NAMED 1875-09-12 21:00:00 TS 18.8064 -75.3548 main 104 74 P____________P AL031875 18.7922 -75.2496 HU 90 2 18.8348 -75.5650 HU 92 16 312
1875246N12333 1875 10 NA CS NOT_NAMED 1875-09-13 00:00:00 TS 19.3333 -75.9667 90 hurdat_atl main 78 33 O____________O hurdat_atl AL031875 19.4000 -76.0000 HU 90 2 19.2000 -75.9000 HU 90 15 308
1875246N12333 1875 10 NA CS NOT_NAMED 1875-09-13 03:00:00 TS 19.7174 -76.5938 main 33 0 P____________P AL031875 19.8301 -76.7880 HU 90 2 19.4921 -76.2056 HU 87 14 302
1875246N12333 1875 10 NA NA NOT_NAMED 1875-09-13 06:00:00 TS 20.0667 -77.2000 90 hurdat_atl main 0 0 O____________O hurdat_atl AL031875 20.2000 -77.5000 HU 90 2 19.8000 -76.6000 HU 85 13 304
1875246N12333 1875 10 NA CS NOT_NAMED 1875-09-13 09:00:00 TS 20.4512 -77.7406 main 22 0 P____________P AL031875 20.5842 -78.0085 HU 85 2 20.1852 -77.2049 HU 82 13 308
1875246N12333 1875 10 NA CS NOT_NAMED 1875-09-13 12:00:00 TS 20.8667 -78.3000 80 978 hurdat_atl main 0 0 O____________O hurdat_atl AL031875 21.0000 -78.5000 HU 80 978 1 20.6000 -77.9000 HU 80 978 15 307
1875246N12333 1875 10 NA CS NOT_NAMED 1875-09-13 15:00:00 TS 21.3385 -78.9831 main 30 0 P____________P AL031875 21.5079 -79.1994 HU 80 1 20.9998 -78.5503 HU 80 16 306
1875246N12333 1875 10 NA NA NOT_NAMED 1875-09-13 18:00:00 TS 21.8000 -79.6667 80 hurdat_atl main 0 0 O____________O hurdat_atl AL031875 22.0000 -79.9000 HU 80 1 21.4000 -79.2000 HU 80 14 306
1875246N12333 1875 10 NA NA NOT_NAMED 1875-09-13 21:00:00 TS 22.1810 -80.2125 main 0 0 P____________P AL031875 22.3716 -80.3936 HU 75 1 21.7997 -79.8504 HU 75 13 306
1875246N12333 1875 10 NA NA NOT_NAMED 1875-09-14 00:00:00 TS 22.5333 -80.7667 70 hurdat_atl main 0 0 O____________O hurdat_atl AL031875 22.7000 -80.9000 HU 70 1 22.2000 -80.5000 HU 70 13 302
1875246N12333 1875 10 NA NA NOT_NAMED 1875-09-14 03:00:00 TS 22.8998 -81.4462 main 0 0 P____________P AL031875 23.0576 -81.6125 HU 65 1 22.5842 -81.1135 HU 65 15 299
1875246N12333 1875 10 NA NA NOT_NAMED 1875-09-14 06:00:00 TS 23.2667 -82.2000 60 992 hurdat_atl main 22 22 O____________O hurdat_atl AL031875 23.4000 -82.4000 TS 60 992 0 23.0000 -81.8000 TS 60 992 16 298
1875246N12333 1875 10 NA GM NOT_NAMED 1875-09-14 09:00:00 TS 23.6407 -82.9926 main 70 70 P____________P AL031875 23.6996 -83.1506 TS 65 1 23.5228 -82.6766 TS 65 16 297
1875246N12333 1875 10 NA GM NOT_NAMED 1875-09-14 12:00:00 TS 24.0000 -83.8000 70 hurdat_atl main 129 129 O____________O hurdat_atl AL031875 24.0000 -83.9000 HU 70 1 24.0000 -83.6000 HU 70 16 295
1875246N12333 1875 10 NA GM NOT_NAMED 1875-09-14 15:00:00 TS 24.3060 -84.5627 main 188 188 P____________P AL031875 24.3119 -84.6360 HU 75 1 24.2943 -84.4160 HU 75 15 294
1875246N12333 1875 10 NA GM NOT_NAMED 1875-09-14 18:00:00 TS 24.6333 -85.3333 80 hurdat_atl main 250 250 O____________O hurdat_atl AL031875 24.7000 -85.4000 HU 80 1 24.5000 -85.2000 HU 80 16 298
1875246N12333 1875 10 NA GM NOT_NAMED 1875-09-14 21:00:00 TS 25.0761 -86.1414 main 342 342 P____________P AL031875 25.2644 -86.2118 HU 80 1 24.6996 -86.0005 HU 80 17 300
1875246N12333 1875 10 NA GM NOT_NAMED 1875-09-15 00:00:00 TS 25.5000 -87.0000 80 hurdat_atl main 436 376 O____________O hurdat_atl AL031875 25.8000 -87.1000 HU 80 1 24.9000 -86.8000 HU 80 18 294
1875246N12333 1875 10 NA GM NOT_NAMED 1875-09-15 03:00:00 TS 25.7878 -87.9513 main 373 336 P____________P AL031875 26.1106 -88.1232 HU 80 1 25.1422 -87.6076 HU 90 18 287
1875246N12333 1875 10 NA GM NOT_NAMED 1875-09-15 06:00:00 TS 26.0000 -88.8667 80 hurdat_atl main 335 315 O____________O hurdat_atl AL031875 26.3000 -89.1000 HU 80 1 25.4000 -88.4000 MH 100 15 285
1875246N12333 1875 10 NA GM NOT_NAMED 1875-09-15 09:00:00 TS 26.1974 -89.6138 main 316 301 P____________P AL031875 26.4713 -89.8381 HU 85 2 25.6496 -89.1653 MH 100 13 286
1875246N12333 1875 10 NA GM NOT_NAMED 1875-09-15 12:00:00 TS 26.3667 -90.3000 90 hurdat_atl main 301 290 O____________O hurdat_atl AL031875 26.6000 -90.5000 HU 90 2 25.9000 -89.9000 MH 100 13 284
1875246N12333 1875 10 NA GM NOT_NAMED 1875-09-15 15:00:00 TS 26.5264 -91.0360 main 290 279 P____________P AL031875 26.7073 -91.2502 HU 90 2 26.1645 -90.6076 MH 100 13 283
1875246N12333 1875 10 NA GM NOT_NAMED 1875-09-15 18:00:00 TS 26.6667 -91.7667 90 hurdat_atl main 282 282 O____________O hurdat_atl AL031875 26.8000 -92.0000 HU 90 2 26.4000 -91.3000 MH 100 962 13 282
1875246N12333 1875 10 NA GM NOT_NAMED 1875-09-15 21:00:00 TS 26.7904 -92.4719 main 300 296 P____________P AL031875 26.9069 -92.7000 HU 90 2 26.5574 -92.0155 MH 110 13 281
1875246N12333 1875 10 NA GM NOT_NAMED 1875-09-16 00:00:00 TS 26.9000 -93.1667 90 hurdat_atl main 303 257 O____________O hurdat_atl AL031875 27.0000 -93.4000 HU 90 2 26.7000 -92.7000 MH 120 13 280
1875246N12333 1875 10 NA GM NOT_NAMED 1875-09-16 03:00:00 TS 27.0100 -93.8917 main 257 219 P____________P AL031875 27.0651 -94.1650 HU 90 2 26.8999 -93.3449 MH 125 13 279
1875246N12333 1875 10 NA GM NOT_NAMED 1875-09-16 06:00:00 TS 27.1000 -94.5667 90 hurdat_atl main 215 189 O____________O hurdat_atl AL031875 27.1000 -94.9000 HU 90 2 27.1000 -93.9000 MH 130 11 277
1875246N12333 1875 10 NA GM NOT_NAMED 1875-09-16 09:00:00 TS 27.1422 -95.1504 main 184 155 P____________P AL031875 27.0848 -95.5529 HU 95 2 27.2572 -94.3453 MH 130 10 276
1875246N12333 1875 10 NA GM NOT_NAMED 1875-09-16 12:00:00 TS 27.2000 -95.6333 100 hurdat_atl main 155 125 O____________O hurdat_atl AL031875 27.1000 -96.1000 HU 100 3 27.4000 -94.7000 MH 130 928 8 282
1875246N12333 1875 10 NA GM NOT_NAMED 1875-09-16 15:00:00 TS 27.3157 -96.0369 main 125 89 P____________P AL031875 27.1986 -96.5477 HU 100 3 27.5498 -95.0151 MH 130 7 295
1875246N12333 1875 10 NA GM NOT_NAMED 1875-09-16 18:00:00 TS 27.5000 -96.3667 100 hurdat_atl main 83 48 O____________O hurdat_atl AL031875 27.4000 -96.9000 HU 100 3 27.7000 -95.3000 MH 130 7 307
1875246N12333 1875 10 NA GM NOT_NAMED 1875-09-16 21:00:00 TS 27.7450 -96.6742 100 hurdat_atl main 48 14 O____________P hurdat_atl AL031875 27.7000 -97.2000 L HU 100 3 27.8351 -95.6226 MH 130 7 320
1875246N12333 1875 10 NA GM NOT_NAMED 1875-09-17 00:00:00 TS 28.0000 -96.8333 90 hurdat_atl main 14 0 O____________O hurdat_atl AL031875 28.0000 -97.3000 HU 90 2 28.0000 -95.9000 MH 130 6 339
1875246N12333 1875 10 NA NA NOT_NAMED 1875-09-17 03:00:00 TS 28.3334 -96.9305 main 0 0 P____________P AL031875 28.3863 -97.3408 HU 80 1 28.2274 -96.1098 MH 112 7 353
1875246N12333 1875 10 NA NA NOT_NAMED 1875-09-17 06:00:00 TS 28.7000 -96.9333 70 hurdat_atl main 0 0 O____________O hurdat_atl AL031875 28.8000 -97.3000 HU 70 1 28.5000 -96.2000 HU 95 7 4
1875246N12333 1875 10 NA NA NOT_NAMED 1875-09-17 09:00:00 TS 29.0457 -96.8649 main 0 0 P____________P AL031875 29.1723 -97.2099 HU 65 1 28.7923 -96.1749 HU 80 7 19
1875246N12333 1875 10 NA NA NOT_NAMED 1875-09-17 12:00:00 TS 29.3667 -96.6667 60 hurdat_atl main 0 0 O____________O hurdat_atl AL031875 29.5000 -97.0000 TS 60 0 29.1000 -96.0000 HU 65 8 35
1875246N12333 1875 10 NA NA NOT_NAMED 1875-09-17 15:00:00 TS 29.6630 -96.3659 main 0 0 P____________P AL031875 29.7798 -96.6675 TS 55 0 29.4292 -95.7626 HU 62 9 51
1875246N12333 1875 10 NA NA NOT_NAMED 1875-09-17 18:00:00 MX 29.9000 -95.9000 50 hurdat_atl main 0 0 O____________O hurdat_atl AL031875 30.0000 -96.2000 TS 50 0 29.7000 -95.3000 EX 60 975 10 68
1875246N12333 1875 10 NA NA NOT_NAMED 1875-09-17 21:00:00 MX 30.0508 -95.2787 main 0 0 P____________P AL031875 30.1647 -95.6521 TS 45 0 29.8229 -94.5318 EX 57 12 77
1875246N12333 1875 10 NA NA NOT_NAMED 1875-09-18 00:00:00 MX 30.1667 -94.5333 40 hurdat_atl main 0 0 O____________O hurdat_atl AL031875 30.3000 -95.0000 TS 40 0 29.9000 -93.6000 EX 55 13 79
1875246N12333 1875 10 NA NA NOT_NAMED 1875-09-18 03:00:00 MX 30.3088 -93.7605 main 0 0 P____________P AL031875 30.4422 -94.2871 TS 40 0 30.0420 -92.7075 EX 52 14 78
1875246N12333 1875 10 NA NA NOT_NAMED 1875-09-18 06:00:00 MX 30.4667 -92.9333 40 hurdat_atl main 0 0 O____________O hurdat_atl AL031875 30.6000 -93.5000 TS 40 0 30.2000 -91.8000 EX 50 15 78
1875246N12333 1875 10 NA NA NOT_NAMED 1875-09-18 09:00:00 MX 30.6213 -92.1104 main 0 0 P____________P AL031875 30.7846 -92.6721 TS 35 0 30.2946 -90.9870 EX 47 16 78
1875246N12333 1875 10 NA NA NOT_NAMED 1875-09-18 12:00:00 MX 30.8000 -91.0800 30 hurdat_atl main 0 0 O____________O hurdat_atl AL031875 31.0000 -91.8000 TD 30 -1 30.5000 -90.0000 EX 45 21 78
1875246N12333 1875 10 NA NA NOT_NAMED 1875-09-18 15:00:00 MX 31.0705 -89.7291 main 0 0 P____________P AL031875 31.2437 -90.9061 TD 30 -1 30.8973 -88.5522 EX 42 27 75
1875246N12333 1875 10 NA NA NOT_NAMED 1875-09-18 18:00:00 MX 31.5000 -88.0000 30 hurdat_atl main 0 0 O____________O hurdat_atl AL031875 31.5000 -90.0000 TD 30 -1 31.5000 -87.0000 EX 40 36 70
1875246N12333 1875 10 NA NA NOT_NAMED 1875-09-18 21:00:00 ET 32.2877 -85.7113 main 0 0 _____________P AL031875 TD -1 32.2877 -85.7113 EX 37 34 60
1875246N12333 1875 10 NA NA NOT_NAMED 1875-09-19 00:00:00 ET 33.2000 -84.5000 main 0 0 _____________O -1 33.2000 -84.5000 EX 35 25 47
1875246N12333 1875 10 NA NA NOT_NAMED 1875-09-19 03:00:00 ET 33.9879 -83.5269 main 0 0 _____________P -1 33.9879 -83.5269 EX 35 27 49
1875246N12333 1875 10 NA NA NOT_NAMED 1875-09-19 06:00:00 ET 35.0000 -82.0000 main 0 0 _____________O -1 35.0000 -82.0000 EX 35 996 46 55
1875246N12333 1875 10 NA NA NOT_NAMED 1875-09-19 09:00:00 ET 36.5817 -78.9346 main 0 0 _____________P -1 36.5817 -78.9346 EX 35 997 60 60
1875246N12333 1875 10 NA NA NOT_NAMED 1875-09-19 12:00:00 ET 38.0000 -75.5000 main 0 0 _____________O -1 38.0000 -75.5000 EX 35 998 52 66
1875246N12333 1875 10 NA NA NOT_NAMED 1875-09-19 15:00:00 ET 38.7169 -72.9282 main 149 149 _____________P -1 38.7169 -72.9282 EX 35 36 74
1875246N12333 1875 10 NA NA NOT_NAMED 1875-09-19 18:00:00 ET 39.0000 -71.0000 main 242 _____________O -1 39.0000 -71.0000 EX 35 30 79

IBTrACS Databaseについて

本データベースは、米国NOAAが公開する1842年以降の世界の熱帯低気圧のベストトラックデータアーカイブInternational Best Track Archive for Climate Stewardship (IBTrACS)を、ウェブで閲覧しやすい形式に変換したものです。

最終更新日:2021-11-26